sensor_id;sensor_type;location;lat;lon;timestamp;temperature;humidity
48416;DHT22;34227;51.840;4.146;2022-09-16T00:05:43;14.60;80.60
48416;DHT22;34227;51.840;4.146;2022-09-16T00:08:09;14.60;80.70
48416;DHT22;34227;51.840;4.146;2022-09-16T00:10:34;14.60;80.80
48416;DHT22;34227;51.840;4.146;2022-09-16T00:13:00;14.60;80.70
48416;DHT22;34227;51.840;4.146;2022-09-16T00:15:26;14.50;80.80
48416;DHT22;34227;51.840;4.146;2022-09-16T00:17:51;14.60;81.20
48416;DHT22;34227;51.840;4.146;2022-09-16T00:20:17;14.50;80.80
48416;DHT22;34227;51.840;4.146;2022-09-16T00:22:42;14.50;81.30
48416;DHT22;34227;51.840;4.146;2022-09-16T00:25:08;14.50;81.50
48416;DHT22;34227;51.840;4.146;2022-09-16T00:27:34;14.50;81.50
48416;DHT22;34227;51.840;4.146;2022-09-16T00:29:59;14.60;81.70
48416;DHT22;34227;51.840;4.146;2022-09-16T00:32:25;14.60;81.60
48416;DHT22;34227;51.840;4.146;2022-09-16T00:34:51;14.50;82.60
48416;DHT22;34227;51.840;4.146;2022-09-16T00:37:19;14.60;82.40
48416;DHT22;34227;51.840;4.146;2022-09-16T00:39:48;14.60;82.80
48416;DHT22;34227;51.840;4.146;2022-09-16T00:42:16;14.60;82.50
48416;DHT22;34227;51.840;4.146;2022-09-16T00:45:02;14.60;82.70
48416;DHT22;34227;51.840;4.146;2022-09-16T00:49:58;14.60;82.70
48416;DHT22;34227;51.840;4.146;2022-09-16T00:52:26;14.60;82.80
48416;DHT22;34227;51.840;4.146;2022-09-16T00:54:52;14.50;82.80
48416;DHT22;34227;51.840;4.146;2022-09-16T00:57:25;14.50;82.70
48416;DHT22;34227;51.840;4.146;2022-09-16T00:59:53;14.50;82.90
48416;DHT22;34227;51.840;4.146;2022-09-16T01:02:52;14.50;82.80
48416;DHT22;34227;51.840;4.146;2022-09-16T01:05:27;14.50;82.90
48416;DHT22;34227;51.840;4.146;2022-09-16T01:07:53;14.50;82.80
48416;DHT22;34227;51.840;4.146;2022-09-16T01:10:25;14.50;82.90
48416;DHT22;34227;51.840;4.146;2022-09-16T01:12:53;14.50;82.90
48416;DHT22;34227;51.840;4.146;2022-09-16T01:33:00;14.40;84.80
48416;DHT22;34227;51.840;4.146;2022-09-16T02:02:47;14.30;85.80
48416;DHT22;34227;51.840;4.146;2022-09-16T02:05:36;14.30;85.30
48416;DHT22;34227;51.840;4.146;2022-09-16T02:08:13;14.30;85.40
48416;DHT22;34227;51.840;4.146;2022-09-16T02:11:01;14.30;85.40
48416;DHT22;34227;51.840;4.146;2022-09-16T02:13:53;14.20;85.40
48416;DHT22;34227;51.840;4.146;2022-09-16T02:19:11;14.20;85.50
48416;DHT22;34227;51.840;4.146;2022-09-16T02:21:38;14.20;85.60
48416;DHT22;34227;51.840;4.146;2022-09-16T02:24:07;14.10;85.50
48416;DHT22;34227;51.840;4.146;2022-09-16T02:26:36;14.10;85.50
48416;DHT22;34227;51.840;4.146;2022-09-16T02:29:05;14.10;85.40
48416;DHT22;34227;51.840;4.146;2022-09-16T02:31:37;14.10;85.60
48416;DHT22;34227;51.840;4.146;2022-09-16T02:36:53;14.00;85.50
48416;DHT22;34227;51.840;4.146;2022-09-16T02:39:29;14.00;85.50
48416;DHT22;34227;51.840;4.146;2022-09-16T02:41:55;14.00;85.70
48416;DHT22;34227;51.840;4.146;2022-09-16T02:44:26;14.00;85.90
48416;DHT22;34227;51.840;4.146;2022-09-16T02:46:59;13.90;85.90
48416;DHT22;34227;51.840;4.146;2022-09-16T02:49:27;13.90;86.20
48416;DHT22;34227;51.840;4.146;2022-09-16T02:52:03;13.90;86.20
48416;DHT22;34227;51.840;4.146;2022-09-16T02:57:21;13.90;86.00
48416;DHT22;34227;51.840;4.146;2022-09-16T02:59:56;13.90;86.00
48416;DHT22;34227;51.840;4.146;2022-09-16T03:02:22;13.90;86.10
48416;DHT22;34227;51.840;4.146;2022-09-16T03:04:47;13.90;86.30
48416;DHT22;34227;51.840;4.146;2022-09-16T03:07:16;13.90;86.30
48416;DHT22;34227;51.840;4.146;2022-09-16T03:09:43;13.90;86.10
48416;DHT22;34227;51.840;4.146;2022-09-16T03:20:51;13.90;86.00
48416;DHT22;34227;51.840;4.146;2022-09-16T03:23:34;13.90;86.00
48416;DHT22;34227;51.840;4.146;2022-09-16T03:36:11;13.90;86.00
48416;DHT22;34227;51.840;4.146;2022-09-16T03:38:40;13.90;85.70
48416;DHT22;34227;51.840;4.146;2022-09-16T03:41:07;13.90;85.70
48416;DHT22;34227;51.840;4.146;2022-09-16T03:43:33;13.90;85.60
48416;DHT22;34227;51.840;4.146;2022-09-16T03:45:59;13.90;85.60
48416;DHT22;34227;51.840;4.146;2022-09-16T03:48:25;13.90;85.60
48416;DHT22;34227;51.840;4.146;2022-09-16T03:53:51;13.90;85.80
48416;DHT22;34227;51.840;4.146;2022-09-16T03:59:21;13.90;86.50
48416;DHT22;34227;51.840;4.146;2022-09-16T04:01:53;13.90;86.40
48416;DHT22;34227;51.840;4.146;2022-09-16T04:07:16;13.80;86.90
48416;DHT22;34227;51.840;4.146;2022-09-16T04:09:44;13.80;86.80
48416;DHT22;34227;51.840;4.146;2022-09-16T04:12:16;13.80;87.70
48416;DHT22;34227;51.840;4.146;2022-09-16T04:14:41;13.80;86.90
48416;DHT22;34227;51.840;4.146;2022-09-16T04:17:07;13.80;87.00
48416;DHT22;34227;51.840;4.146;2022-09-16T04:19:36;13.80;86.80
48416;DHT22;34227;51.840;4.146;2022-09-16T04:22:05;13.80;86.70
48416;DHT22;34227;51.840;4.146;2022-09-16T04:24:30;13.80;86.80
48416;DHT22;34227;51.840;4.146;2022-09-16T04:27:04;13.80;86.80
48416;DHT22;34227;51.840;4.146;2022-09-16T04:29:30;13.80;86.80
48416;DHT22;34227;51.840;4.146;2022-09-16T04:31:56;13.80;87.30
48416;DHT22;34227;51.840;4.146;2022-09-16T04:34:22;13.80;87.70
48416;DHT22;34227;51.840;4.146;2022-09-16T04:36:47;13.80;87.90
48416;DHT22;34227;51.840;4.146;2022-09-16T04:39:13;13.80;88.10
48416;DHT22;34227;51.840;4.146;2022-09-16T04:41:39;13.80;88.30
48416;DHT22;34227;51.840;4.146;2022-09-16T04:44:05;13.80;88.30
48416;DHT22;34227;51.840;4.146;2022-09-16T04:46:30;13.80;88.40
48416;DHT22;34227;51.840;4.146;2022-09-16T04:48:57;13.70;88.10
48416;DHT22;34227;51.840;4.146;2022-09-16T04:51:25;13.80;88.10
48416;DHT22;34227;51.840;4.146;2022-09-16T04:53:52;13.80;88.10
48416;DHT22;34227;51.840;4.146;2022-09-16T04:56:19;13.70;87.90
48416;DHT22;34227;51.840;4.146;2022-09-16T04:58:52;13.70;87.80
48416;DHT22;34227;51.840;4.146;2022-09-16T05:01:23;13.70;87.60
48416;DHT22;34227;51.840;4.146;2022-09-16T05:03:50;13.70;88.20
48416;DHT22;34227;51.840;4.146;2022-09-16T05:06:26;13.70;87.80
48416;DHT22;34227;51.840;4.146;2022-09-16T05:08:55;13.70;87.90
48416;DHT22;34227;51.840;4.146;2022-09-16T05:11:22;13.70;87.90
48416;DHT22;34227;51.840;4.146;2022-09-16T05:13:50;13.60;87.90
48416;DHT22;34227;51.840;4.146;2022-09-16T05:16:17;13.60;88.60
48416;DHT22;34227;51.840;4.146;2022-09-16T05:18:43;13.60;88.90
48416;DHT22;34227;51.840;4.146;2022-09-16T05:24:46;13.60;88.80
48416;DHT22;34227;51.840;4.146;2022-09-16T05:27:15;13.60;88.90
48416;DHT22;34227;51.840;4.146;2022-09-16T05:32:44;13.50;88.80
48416;DHT22;34227;51.840;4.146;2022-09-16T05:35:14;13.60;89.20
48416;DHT22;34227;51.840;4.146;2022-09-16T05:40:38;13.60;89.80
48416;DHT22;34227;51.840;4.146;2022-09-16T05:43:07;13.60;89.80
48416;DHT22;34227;51.840;4.146;2022-09-16T05:45:41;13.60;89.70
48416;DHT22;34227;51.840;4.146;2022-09-16T05:48:22;13.50;89.80
48416;DHT22;34227;51.840;4.146;2022-09-16T05:50:59;13.50;89.70
48416;DHT22;34227;51.840;4.146;2022-09-16T05:53:25;13.50;89.30
48416;DHT22;34227;51.840;4.146;2022-09-16T05:56:04;13.50;89.30
48416;DHT22;34227;51.840;4.146;2022-09-16T06:05:02;13.50;88.90
48416;DHT22;34227;51.840;4.146;2022-09-16T06:10:45;13.40;88.50
48416;DHT22;34227;51.840;4.146;2022-09-16T06:19:16;13.40;88.60
48416;DHT22;34227;51.840;4.146;2022-09-16T06:25:07;13.40;88.80
48416;DHT22;34227;51.840;4.146;2022-09-16T06:42:26;13.40;89.90
48416;DHT22;34227;51.840;4.146;2022-09-16T06:44:55;13.40;89.60
48416;DHT22;34227;51.840;4.146;2022-09-16T06:47:25;13.50;89.10
48416;DHT22;34227;51.840;4.146;2022-09-16T06:49:54;13.60;89.40
48416;DHT22;34227;51.840;4.146;2022-09-16T06:52:26;13.60;88.60
48416;DHT22;34227;51.840;4.146;2022-09-16T06:55:10;13.80;88.40
48416;DHT22;34227;51.840;4.146;2022-09-16T06:58:07;13.80;87.90
48416;DHT22;34227;51.840;4.146;2022-09-16T07:00:33;13.90;88.10
48416;DHT22;34227;51.840;4.146;2022-09-16T07:03:09;13.90;87.80
48416;DHT22;34227;51.840;4.146;2022-09-16T07:05:34;13.90;87.90
48416;DHT22;34227;51.840;4.146;2022-09-16T07:08:00;13.90;88.00
48416;DHT22;34227;51.840;4.146;2022-09-16T07:10:27;14.00;88.40
48416;DHT22;34227;51.840;4.146;2022-09-16T07:12:55;14.00;88.60
48416;DHT22;34227;51.840;4.146;2022-09-16T07:18:34;14.10;89.30
48416;DHT22;34227;51.840;4.146;2022-09-16T07:23:32;14.30;89.30
48416;DHT22;34227;51.840;4.146;2022-09-16T07:26:01;14.40;89.20
48416;DHT22;34227;51.840;4.146;2022-09-16T07:28:28;14.50;88.20
48416;DHT22;34227;51.840;4.146;2022-09-16T07:31:06;14.60;88.40
48416;DHT22;34227;51.840;4.146;2022-09-16T07:33:46;14.60;88.00
48416;DHT22;34227;51.840;4.146;2022-09-16T07:36:14;14.70;87.40
48416;DHT22;34227;51.840;4.146;2022-09-16T07:38:40;14.70;87.30
48416;DHT22;34227;51.840;4.146;2022-09-16T07:41:18;14.70;87.20
48416;DHT22;34227;51.840;4.146;2022-09-16T07:43:47;14.70;87.00
48416;DHT22;34227;51.840;4.146;2022-09-16T07:46:15;14.60;88.00
48416;DHT22;34227;51.840;4.146;2022-09-16T07:48:44;14.70;88.90
48416;DHT22;34227;51.840;4.146;2022-09-16T07:51:18;15.00;89.70
48416;DHT22;34227;51.840;4.146;2022-09-16T07:53:44;15.30;90.10
48416;DHT22;34227;51.840;4.146;2022-09-16T07:56:14;15.70;90.10
48416;DHT22;34227;51.840;4.146;2022-09-16T07:58:45;16.20;89.90
48416;DHT22;34227;51.840;4.146;2022-09-16T08:01:14;16.70;88.40
48416;DHT22;34227;51.840;4.146;2022-09-16T08:03:40;17.10;87.60
48416;DHT22;34227;51.840;4.146;2022-09-16T08:06:12;17.40;86.20
48416;DHT22;34227;51.840;4.146;2022-09-16T08:08:38;17.70;85.90
48416;DHT22;34227;51.840;4.146;2022-09-16T08:11:05;18.00;84.40
48416;DHT22;34227;51.840;4.146;2022-09-16T08:13:40;18.30;84.50
48416;DHT22;34227;51.840;4.146;2022-09-16T08:16:07;18.70;84.70
48416;DHT22;34227;51.840;4.146;2022-09-16T08:18:34;19.10;84.60
48416;DHT22;34227;51.840;4.146;2022-09-16T08:21:04;19.40;83.70
48416;DHT22;34227;51.840;4.146;2022-09-16T08:23:29;19.80;83.00
48416;DHT22;34227;51.840;4.146;2022-09-16T08:25:58;20.20;82.50
48416;DHT22;34227;51.840;4.146;2022-09-16T08:28:24;20.50;81.30
48416;DHT22;34227;51.840;4.146;2022-09-16T08:30:50;20.90;80.80
48416;DHT22;34227;51.840;4.146;2022-09-16T08:33:19;21.30;80.80
48416;DHT22;34227;51.840;4.146;2022-09-16T08:35:56;21.60;79.00
48416;DHT22;34227;51.840;4.146;2022-09-16T08:38:22;21.90;77.40
48416;DHT22;34227;51.840;4.146;2022-09-16T08:40:47;22.20;74.30
48416;DHT22;34227;51.840;4.146;2022-09-16T08:43:19;22.40;73.90
48416;DHT22;34227;51.840;4.146;2022-09-16T08:45:53;22.50;73.50
48416;DHT22;34227;51.840;4.146;2022-09-16T08:50:47;22.80;71.70
48416;DHT22;34227;51.840;4.146;2022-09-16T08:55:58;22.90;69.80
48416;DHT22;34227;51.840;4.146;2022-09-16T08:58:26;22.90;69.00
48416;DHT22;34227;51.840;4.146;2022-09-16T09:00:57;22.80;69.50
48416;DHT22;34227;51.840;4.146;2022-09-16T09:05:58;22.40;69.60
48416;DHT22;34227;51.840;4.146;2022-09-16T09:19:26;21.10;72.40
48416;DHT22;34227;51.840;4.146;2022-09-16T09:24:25;20.60;73.50
48416;DHT22;34227;51.840;4.146;2022-09-16T09:26:57;20.50;73.90
48416;DHT22;34227;51.840;4.146;2022-09-16T09:47:46;19.40;76.70
48416;DHT22;34227;51.840;4.146;2022-09-16T09:52:46;19.10;77.00
48416;DHT22;34227;51.840;4.146;2022-09-16T09:55:17;19.00;77.50
48416;DHT22;34227;51.840;4.146;2022-09-16T09:57:53;19.00;77.80
48416;DHT22;34227;51.840;4.146;2022-09-16T10:00:35;18.90;77.80
48416;DHT22;34227;51.840;4.146;2022-09-16T10:06:01;18.70;77.50
48416;DHT22;34227;51.840;4.146;2022-09-16T10:11:31;18.60;77.10
48416;DHT22;34227;51.840;4.146;2022-09-16T10:13:58;18.60;77.30
48416;DHT22;34227;51.840;4.146;2022-09-16T10:16:25;18.60;77.60
48416;DHT22;34227;51.840;4.146;2022-09-16T10:18:55;18.60;77.50
48416;DHT22;34227;51.840;4.146;2022-09-16T10:21:35;18.60;77.60
48416;DHT22;34227;51.840;4.146;2022-09-16T10:24:03;18.60;77.60
48416;DHT22;34227;51.840;4.146;2022-09-16T10:26:28;18.60;77.50
48416;DHT22;34227;51.840;4.146;2022-09-16T10:29:01;18.60;77.70
48416;DHT22;34227;51.840;4.146;2022-09-16T10:31:29;18.60;78.10
48416;DHT22;34227;51.840;4.146;2022-09-16T10:33:56;18.60;78.40
48416;DHT22;34227;51.840;4.146;2022-09-16T10:36:23;18.70;78.60
48416;DHT22;34227;51.840;4.146;2022-09-16T10:38:56;18.70;78.60
48416;DHT22;34227;51.840;4.146;2022-09-16T10:41:27;18.70;78.80
48416;DHT22;34227;51.840;4.146;2022-09-16T10:43:56;18.70;78.90
48416;DHT22;34227;51.840;4.146;2022-09-16T10:46:26;18.70;79.00
48416;DHT22;34227;51.840;4.146;2022-09-16T10:48:57;18.70;78.90
48416;DHT22;34227;51.840;4.146;2022-09-16T10:51:37;18.80;79.00
48416;DHT22;34227;51.840;4.146;2022-09-16T10:54:26;18.80;78.80
48416;DHT22;34227;51.840;4.146;2022-09-16T10:56:52;18.70;78.60
48416;DHT22;34227;51.840;4.146;2022-09-16T10:59:24;18.80;78.60
48416;DHT22;34227;51.840;4.146;2022-09-16T11:01:59;18.70;78.50
48416;DHT22;34227;51.840;4.146;2022-09-16T11:07:15;18.70;79.20
48416;DHT22;34227;51.840;4.146;2022-09-16T11:10:32;18.60;78.40
48416;DHT22;34227;51.840;4.146;2022-09-16T11:22:58;18.40;78.80
48416;DHT22;34227;51.840;4.146;2022-09-16T11:31:10;18.30;78.80
48416;DHT22;34227;51.840;4.146;2022-09-16T11:41:54;18.10;78.90
48416;DHT22;34227;51.840;4.146;2022-09-16T11:52:57;17.90;78.70
48416;DHT22;34227;51.840;4.146;2022-09-16T11:55:26;17.80;78.70
48416;DHT22;34227;51.840;4.146;2022-09-16T11:57:58;17.80;79.00
48416;DHT22;34227;51.840;4.146;2022-09-16T12:00:25;17.80;79.10
48416;DHT22;34227;51.840;4.146;2022-09-16T12:02:57;17.80;79.30
48416;DHT22;34227;51.840;4.146;2022-09-16T12:05:39;17.80;79.30
48416;DHT22;34227;51.840;4.146;2022-09-16T12:08:21;17.70;79.00
48416;DHT22;34227;51.840;4.146;2022-09-16T12:13:15;17.70;79.10
48416;DHT22;34227;51.840;4.146;2022-09-16T12:18:10;17.70;79.10
48416;DHT22;34227;51.840;4.146;2022-09-16T12:20:40;17.80;78.90
48416;DHT22;34227;51.840;4.146;2022-09-16T12:25:46;17.70;77.90
48416;DHT22;34227;51.840;4.146;2022-09-16T12:30:58;17.60;77.70
48416;DHT22;34227;51.840;4.146;2022-09-16T12:33:27;17.60;77.80
48416;DHT22;34227;51.840;4.146;2022-09-16T12:35:58;17.50;78.00
48416;DHT22;34227;51.840;4.146;2022-09-16T12:38:26;17.50;78.00
48416;DHT22;34227;51.840;4.146;2022-09-16T12:51:12;17.30;77.90
48416;DHT22;34227;51.840;4.146;2022-09-16T12:59:14;17.30;78.10
48416;DHT22;34227;51.840;4.146;2022-09-16T13:01:43;17.30;78.20
48416;DHT22;34227;51.840;4.146;2022-09-16T13:04:17;17.30;78.00
48416;DHT22;34227;51.840;4.146;2022-09-16T13:06:50;17.30;77.90
48416;DHT22;34227;51.840;4.146;2022-09-16T13:09:24;17.30;77.60
48416;DHT22;34227;51.840;4.146;2022-09-16T13:11:54;17.30;77.20
48416;DHT22;34227;51.840;4.146;2022-09-16T13:14:22;17.30;76.80
48416;DHT22;34227;51.840;4.146;2022-09-16T13:16:57;17.20;77.00
48416;DHT22;34227;51.840;4.146;2022-09-16T13:19:35;17.20;76.80
48416;DHT22;34227;51.840;4.146;2022-09-16T13:22:10;17.20;77.20
48416;DHT22;34227;51.840;4.146;2022-09-16T13:24:38;17.10;77.90
48416;DHT22;34227;51.840;4.146;2022-09-16T13:29:49;17.00;78.20
48416;DHT22;34227;51.840;4.146;2022-09-16T13:32:24;16.90;78.40
48416;DHT22;34227;51.840;4.146;2022-09-16T13:35:01;16.80;78.60
48416;DHT22;34227;51.840;4.146;2022-09-16T13:37:26;16.80;79.00
48416;DHT22;34227;51.840;4.146;2022-09-16T13:39:52;16.70;79.50
48416;DHT22;34227;51.840;4.146;2022-09-16T13:42:18;16.60;79.40
48416;DHT22;34227;51.840;4.146;2022-09-16T13:44:44;16.60;79.50
48416;DHT22;34227;51.840;4.146;2022-09-16T13:52:16;16.60;80.00
48416;DHT22;34227;51.840;4.146;2022-09-16T13:58:12;16.60;80.30
48416;DHT22;34227;51.840;4.146;2022-09-16T14:06:11;16.50;80.30
48416;DHT22;34227;51.840;4.146;2022-09-16T14:11:31;16.50;80.80
48416;DHT22;34227;51.840;4.146;2022-09-16T14:14:13;16.50;81.40
48416;DHT22;34227;51.840;4.146;2022-09-16T14:16:46;16.50;81.40
48416;DHT22;34227;51.840;4.146;2022-09-16T14:19:25;16.40;81.30
48416;DHT22;34227;51.840;4.146;2022-09-16T14:28:19;16.20;82.60
48416;DHT22;34227;51.840;4.146;2022-09-16T14:30:49;16.10;82.50
48416;DHT22;34227;51.840;4.146;2022-09-16T14:33:25;16.10;82.60
48416;DHT22;34227;51.840;4.146;2022-09-16T14:35:52;16.00;82.90
48416;DHT22;34227;51.840;4.146;2022-09-16T14:38:19;15.90;83.10
48416;DHT22;34227;51.840;4.146;2022-09-16T14:40:45;15.90;83.30
48416;DHT22;34227;51.840;4.146;2022-09-16T14:43:18;15.90;83.20
48416;DHT22;34227;51.840;4.146;2022-09-16T14:45:47;15.80;83.20
48416;DHT22;34227;51.840;4.146;2022-09-16T14:48:13;15.80;83.10
48416;DHT22;34227;51.840;4.146;2022-09-16T14:50:41;15.80;83.10
48416;DHT22;34227;51.840;4.146;2022-09-16T14:53:20;15.80;83.20
48416;DHT22;34227;51.840;4.146;2022-09-16T14:55:48;15.80;83.70
48416;DHT22;34227;51.840;4.146;2022-09-16T14:58:13;15.80;83.90
48416;DHT22;34227;51.840;4.146;2022-09-16T15:00:44;15.70;84.00
48416;DHT22;34227;51.840;4.146;2022-09-16T15:03:13;15.70;84.00
48416;DHT22;34227;51.840;4.146;2022-09-16T15:05:40;15.60;84.20
48416;DHT22;34227;51.840;4.146;2022-09-16T15:08:15;15.60;84.30
48416;DHT22;34227;51.840;4.146;2022-09-16T15:10:50;15.50;83.80
48416;DHT22;34227;51.840;4.146;2022-09-16T15:13:17;15.50;84.10
48416;DHT22;34227;51.840;4.146;2022-09-16T15:15:54;15.40;84.00
48416;DHT22;34227;51.840;4.146;2022-09-16T15:18:21;15.40;84.20
48416;DHT22;34227;51.840;4.146;2022-09-16T15:21:02;15.40;84.20
48416;DHT22;34227;51.840;4.146;2022-09-16T15:23:29;15.30;84.20
48416;DHT22;34227;51.840;4.146;2022-09-16T15:26:08;15.30;84.10
48416;DHT22;34227;51.840;4.146;2022-09-16T15:28:35;15.30;84.20
48416;DHT22;34227;51.840;4.146;2022-09-16T15:31:01;15.30;84.20
48416;DHT22;34227;51.840;4.146;2022-09-16T15:33:34;15.20;84.20
48416;DHT22;34227;51.840;4.146;2022-09-16T15:36:00;15.20;84.50
48416;DHT22;34227;51.840;4.146;2022-09-16T15:38:26;15.20;84.60
48416;DHT22;34227;51.840;4.146;2022-09-16T15:41:05;15.20;84.30
48416;DHT22;34227;51.840;4.146;2022-09-16T15:43:36;15.20;84.60
48416;DHT22;34227;51.840;4.146;2022-09-16T15:46:05;15.20;84.60
48416;DHT22;34227;51.840;4.146;2022-09-16T15:48:41;15.20;84.50
48416;DHT22;34227;51.840;4.146;2022-09-16T15:51:09;15.10;84.40
48416;DHT22;34227;51.840;4.146;2022-09-16T15:53:43;15.10;84.50
48416;DHT22;34227;51.840;4.146;2022-09-16T15:58:42;15.00;84.90
48416;DHT22;34227;51.840;4.146;2022-09-16T16:06:13;14.90;84.70
48416;DHT22;34227;51.840;4.146;2022-09-16T16:08:46;14.90;84.80
48416;DHT22;34227;51.840;4.146;2022-09-16T16:11:19;14.90;84.70
48416;DHT22;34227;51.840;4.146;2022-09-16T16:13:45;14.80;84.90
48416;DHT22;34227;51.840;4.146;2022-09-16T16:16:14;14.80;84.70
48416;DHT22;34227;51.840;4.146;2022-09-16T16:18:40;14.80;84.70
48416;DHT22;34227;51.840;4.146;2022-09-16T16:21:07;14.80;84.80
48416;DHT22;34227;51.840;4.146;2022-09-16T16:23:34;14.70;84.60
48416;DHT22;34227;51.840;4.146;2022-09-16T16:26:06;14.70;84.70
48416;DHT22;34227;51.840;4.146;2022-09-16T16:28:32;14.70;84.50
48416;DHT22;34227;51.840;4.146;2022-09-16T16:31:13;14.70;84.70
48416;DHT22;34227;51.840;4.146;2022-09-16T16:33:45;14.70;84.90
48416;DHT22;34227;51.840;4.146;2022-09-16T16:36:14;14.60;85.50
48416;DHT22;34227;51.840;4.146;2022-09-16T16:38:40;14.60;85.20
48416;DHT22;34227;51.840;4.146;2022-09-16T16:41:06;14.60;85.20
48416;DHT22;34227;51.840;4.146;2022-09-16T16:43:32;14.60;85.40
48416;DHT22;34227;51.840;4.146;2022-09-16T16:45:58;14.50;85.20
48416;DHT22;34227;51.840;4.146;2022-09-16T16:48:25;14.50;85.30
48416;DHT22;34227;51.840;4.146;2022-09-16T16:51:09;14.50;85.20
48416;DHT22;34227;51.840;4.146;2022-09-16T16:53:35;14.50;85.40
48416;DHT22;34227;51.840;4.146;2022-09-16T16:56:08;14.40;85.20
48416;DHT22;34227;51.840;4.146;2022-09-16T16:58:34;14.40;85.40
48416;DHT22;34227;51.840;4.146;2022-09-16T17:01:08;14.40;85.40
48416;DHT22;34227;51.840;4.146;2022-09-16T17:03:33;14.40;85.50
48416;DHT22;34227;51.840;4.146;2022-09-16T17:05:59;14.30;85.20
48416;DHT22;34227;51.840;4.146;2022-09-16T17:08:25;14.30;85.30
48416;DHT22;34227;51.840;4.146;2022-09-16T17:11:04;14.30;85.60
48416;DHT22;34227;51.840;4.146;2022-09-16T17:13:29;14.30;85.70
48416;DHT22;34227;51.840;4.146;2022-09-16T17:15:55;14.20;85.90
48416;DHT22;34227;51.840;4.146;2022-09-16T17:18:21;14.20;86.10
48416;DHT22;34227;51.840;4.146;2022-09-16T17:20:47;14.20;86.00
48416;DHT22;34227;51.840;4.146;2022-09-16T17:23:12;14.10;85.80
48416;DHT22;34227;51.840;4.146;2022-09-16T17:25:38;14.20;85.80
48416;DHT22;34227;51.840;4.146;2022-09-16T17:28:03;14.10;85.70
48416;DHT22;34227;51.840;4.146;2022-09-16T17:30:29;14.10;86.50
48416;DHT22;34227;51.840;4.146;2022-09-16T17:32:54;14.00;85.70
48416;DHT22;34227;51.840;4.146;2022-09-16T17:35:23;14.00;85.70
48416;DHT22;34227;51.840;4.146;2022-09-16T17:37:48;14.00;85.80
48416;DHT22;34227;51.840;4.146;2022-09-16T17:40:14;14.00;85.90
48416;DHT22;34227;51.840;4.146;2022-09-16T17:42:39;13.90;85.90
48416;DHT22;34227;51.840;4.146;2022-09-16T17:45:08;13.90;86.10
48416;DHT22;34227;51.840;4.146;2022-09-16T17:47:34;13.90;86.00
48416;DHT22;34227;51.840;4.146;2022-09-16T17:49:59;13.80;86.20
48416;DHT22;34227;51.840;4.146;2022-09-16T17:52:31;13.80;86.40
48416;DHT22;34227;51.840;4.146;2022-09-16T17:55:03;13.80;86.50
48416;DHT22;34227;51.840;4.146;2022-09-16T18:00:26;13.80;87.30
48416;DHT22;34227;51.840;4.146;2022-09-16T18:02:55;13.70;86.70
48416;DHT22;34227;51.840;4.146;2022-09-16T18:05:21;13.70;86.70
48416;DHT22;34227;51.840;4.146;2022-09-16T18:07:47;13.70;86.80
48416;DHT22;34227;51.840;4.146;2022-09-16T18:10:12;13.70;87.10
48416;DHT22;34227;51.840;4.146;2022-09-16T18:12:38;13.60;87.40
48416;DHT22;34227;51.840;4.146;2022-09-16T18:15:03;13.60;88.00
48416;DHT22;34227;51.840;4.146;2022-09-16T18:17:29;13.60;88.40
48416;DHT22;34227;51.840;4.146;2022-09-16T18:19:55;13.60;88.40
48416;DHT22;34227;51.840;4.146;2022-09-16T18:22:20;13.60;88.10
48416;DHT22;34227;51.840;4.146;2022-09-16T18:24:46;13.50;88.20
48416;DHT22;34227;51.840;4.146;2022-09-16T18:27:11;13.50;88.20
48416;DHT22;34227;51.840;4.146;2022-09-16T18:29:37;13.50;88.20
48416;DHT22;34227;51.840;4.146;2022-09-16T18:32:06;13.40;88.10
48416;DHT22;34227;51.840;4.146;2022-09-16T18:34:32;13.40;88.20
48416;DHT22;34227;51.840;4.146;2022-09-16T18:36:57;13.40;88.10
48416;DHT22;34227;51.840;4.146;2022-09-16T18:39:34;13.40;88.80
48416;DHT22;34227;51.840;4.146;2022-09-16T18:42:00;13.30;88.00
48416;DHT22;34227;51.840;4.146;2022-09-16T18:44:31;13.30;88.10
48416;DHT22;34227;51.840;4.146;2022-09-16T18:46:56;13.20;88.00
48416;DHT22;34227;51.840;4.146;2022-09-16T18:49:22;13.20;87.90
48416;DHT22;34227;51.840;4.146;2022-09-16T18:51:55;13.20;88.10
48416;DHT22;34227;51.840;4.146;2022-09-16T18:54:22;13.20;88.50
48416;DHT22;34227;51.840;4.146;2022-09-16T18:56:55;13.20;89.00
48416;DHT22;34227;51.840;4.146;2022-09-16T18:59:23;13.10;89.40
48416;DHT22;34227;51.840;4.146;2022-09-16T19:01:51;13.10;89.60
48416;DHT22;34227;51.840;4.146;2022-09-16T19:04:18;13.10;89.60
48416;DHT22;34227;51.840;4.146;2022-09-16T19:06:45;13.10;89.60
48416;DHT22;34227;51.840;4.146;2022-09-16T19:09:12;13.10;89.50
48416;DHT22;34227;51.840;4.146;2022-09-16T19:11:38;13.10;89.30
48416;DHT22;34227;51.840;4.146;2022-09-16T19:14:04;13.10;89.30
48416;DHT22;34227;51.840;4.146;2022-09-16T19:16:36;13.00;89.20
48416;DHT22;34227;51.840;4.146;2022-09-16T19:19:05;13.10;89.20
48416;DHT22;34227;51.840;4.146;2022-09-16T19:21:30;13.10;89.00
48416;DHT22;34227;51.840;4.146;2022-09-16T19:23:56;13.00;89.10
48416;DHT22;34227;51.840;4.146;2022-09-16T19:26:33;13.00;89.10
48416;DHT22;34227;51.840;4.146;2022-09-16T19:28:58;13.00;89.10
48416;DHT22;34227;51.840;4.146;2022-09-16T19:31:26;13.00;89.20
48416;DHT22;34227;51.840;4.146;2022-09-16T19:33:53;13.00;89.40
48416;DHT22;34227;51.840;4.146;2022-09-16T19:36:20;12.90;89.00
48416;DHT22;34227;51.840;4.146;2022-09-16T19:38:46;13.00;89.50
48416;DHT22;34227;51.840;4.146;2022-09-16T19:41:13;13.00;89.30
48416;DHT22;34227;51.840;4.146;2022-09-16T19:43:39;13.00;89.30
48416;DHT22;34227;51.840;4.146;2022-09-16T19:46:05;13.00;89.30
48416;DHT22;34227;51.840;4.146;2022-09-16T19:48:31;13.00;89.70
48416;DHT22;34227;51.840;4.146;2022-09-16T19:50:57;13.00;89.70
48416;DHT22;34227;51.840;4.146;2022-09-16T19:53:23;12.90;89.70
48416;DHT22;34227;51.840;4.146;2022-09-16T19:55:48;13.00;89.50
48416;DHT22;34227;51.840;4.146;2022-09-16T19:58:14;13.00;89.70
48416;DHT22;34227;51.840;4.146;2022-09-16T20:00:40;12.90;89.70
48416;DHT22;34227;51.840;4.146;2022-09-16T20:03:06;13.00;90.10
48416;DHT22;34227;51.840;4.146;2022-09-16T20:05:57;12.90;90.00
48416;DHT22;34227;51.840;4.146;2022-09-16T20:08:23;12.90;89.70
48416;DHT22;34227;51.840;4.146;2022-09-16T20:10:48;13.00;89.70
48416;DHT22;34227;51.840;4.146;2022-09-16T20:13:14;12.90;89.40
48416;DHT22;34227;51.840;4.146;2022-09-16T20:15:39;13.00;89.20
48416;DHT22;34227;51.840;4.146;2022-09-16T20:18:05;12.90;89.00
48416;DHT22;34227;51.840;4.146;2022-09-16T20:20:31;12.90;89.20
48416;DHT22;34227;51.840;4.146;2022-09-16T20:22:56;12.90;89.20
48416;DHT22;34227;51.840;4.146;2022-09-16T20:25:22;12.90;89.30
48416;DHT22;34227;51.840;4.146;2022-09-16T20:27:47;12.90;89.60